Unser Platzwetter:

(um das Bild zu aktualisieren oder bei unvollständig geladenem Bild den Reload-Button des Browsers drücken)

[Quelle: ADDS]
METAR
ETNN 151643Z 02004KT 2500 -SHRA BR FEW020 FEW030CB BKN060 22/20 Q1014 RETSRA YLO =
TAF
SR / SS: 04:22 / 18:53 UTC (Vettweiss-Soller 2020-08-15)

Aktuelle Windrichtung in Relation zu unserer Bahn:

 

Aktuelle Dichtehöhe bei uns am Platz: 1.453 ft.

PPR beachten

50 44 51 N / 06 34 01 E
525 ft
14/32 Gras 360 m
136.090 MHz
02424/901444

Kontakt:

LSG Gertrundenhof e.V.
c/o Rolf Viehs
Scheffensweg 33
52393 Hürtgenwald-Gey
02429/908222
0178/8845333

in Lokalzeit:
06:20
20:55